createdAt,value
2019-04-27T00:01:17.218Z,12.65
2019-04-27T00:03:54.053Z,12.33
2019-04-27T00:06:24.593Z,11.95
2019-04-27T00:09:11.645Z,11.30
2019-04-27T00:11:45.459Z,12.28
2019-04-27T00:14:16.690Z,13.03
2019-04-27T00:16:51.212Z,12.18
2019-04-27T00:19:36.756Z,12.35
2019-04-27T00:22:08.022Z,11.80
2019-04-27T00:24:36.836Z,12.95
2019-04-27T00:27:06.394Z,12.13
2019-04-27T00:29:35.144Z,12.93
2019-04-27T00:32:04.375Z,12.90
2019-04-27T00:34:33.961Z,13.13
2019-04-27T00:37:07.632Z,13.30
2019-04-27T00:39:38.052Z,12.90
2019-04-27T00:42:06.876Z,13.35
2019-04-27T00:44:35.720Z,13.10
2019-04-27T00:47:06.138Z,12.50
2019-04-27T00:49:34.964Z,13.78
2019-04-27T00:52:04.101Z,14.40
2019-04-27T00:54:33.968Z,13.53
2019-04-27T00:57:04.640Z,12.60
2019-04-27T00:59:52.961Z,13.38
2019-04-27T01:02:39.822Z,14.45
2019-04-27T01:05:10.442Z,14.18
2019-04-27T01:07:39.232Z,13.65
2019-04-27T01:10:08.431Z,13.93
2019-04-27T01:12:37.185Z,14.45
2019-04-27T01:15:06.711Z,14.25
2019-04-27T01:17:35.455Z,13.45
2019-04-27T01:20:05.277Z,13.13
2019-04-27T01:22:34.048Z,13.95
2019-04-27T01:25:03.201Z,14.13
2019-04-27T01:27:36.620Z,14.38
2019-04-27T01:30:10.703Z,13.88
2019-04-27T01:35:08.685Z,14.80
2019-04-27T01:37:38.647Z,15.10
2019-04-27T01:40:09.713Z,14.15
2019-04-27T01:42:39.512Z,14.38
2019-04-27T01:45:08.842Z,15.03
2019-04-27T01:47:39.084Z,16.40
2019-04-27T01:50:08.849Z,14.45
2019-04-27T01:52:38.504Z,14.87
2019-04-27T01:55:08.674Z,14.53
2019-04-27T01:57:38.664Z,15.10
2019-04-27T02:00:29.525Z,15.60
2019-04-27T02:02:59.997Z,15.23
2019-04-27T02:05:33.377Z,14.20
2019-04-27T02:08:02.223Z,15.63
2019-04-27T02:10:31.003Z,15.23
2019-04-27T02:12:59.792Z,13.98
2019-04-27T02:15:29.368Z,15.43
2019-04-27T02:17:59.635Z,15.32
2019-04-27T02:20:29.984Z,15.20
2019-04-27T02:22:58.978Z,14.80
2019-04-27T02:25:29.364Z,14.93
2019-04-27T02:28:02.750Z,15.10
2019-04-27T02:30:40.965Z,16.57
2019-04-27T02:33:29.924Z,15.38
2019-04-27T02:35:59.859Z,16.40
2019-04-27T02:38:30.499Z,16.25
2019-04-27T02:41:00.030Z,16.73
2019-04-27T02:43:30.592Z,16.05
2019-04-27T02:46:00.452Z,15.83
2019-04-27T02:48:29.891Z,16.48
2019-04-27T02:51:00.447Z,16.67
2019-04-27T02:53:49.291Z,17.40
2019-04-27T02:56:20.000Z,16.12
2019-04-27T02:58:49.581Z,16.42
2019-04-27T03:01:20.113Z,16.87
2019-04-27T03:03:50.182Z,16.82
2019-04-27T03:06:19.979Z,16.82
2019-04-27T03:08:52.896Z,16.95
2019-04-27T03:11:22.977Z,16.45
2019-04-27T03:13:54.582Z,15.40
2019-04-27T03:16:24.958Z,15.80
2019-04-27T03:19:18.145Z,16.32
2019-04-27T03:21:43.743Z,15.93
2019-04-27T03:24:12.711Z,15.88
2019-04-27T03:26:52.360Z,15.20
2019-04-27T03:29:23.022Z,15.20
2019-04-27T03:31:53.868Z,14.78
2019-04-27T03:34:22.593Z,15.18
2019-04-27T03:36:51.795Z,14.75
2019-04-27T03:39:20.693Z,14.63
2019-04-27T03:41:50.216Z,14.75
2019-04-27T03:44:20.006Z,14.47
2019-04-27T03:46:49.605Z,15.45
2019-04-27T03:49:29.350Z,14.85
2019-04-27T03:51:56.820Z,15.13
2019-04-27T03:54:29.524Z,15.28
2019-04-27T03:57:02.291Z,13.88
2019-04-27T03:59:34.751Z,14.80
2019-04-27T04:02:03.828Z,13.98
2019-04-27T04:04:32.908Z,14.78
2019-04-27T04:07:14.917Z,13.72
2019-04-27T04:09:43.673Z,13.85
2019-04-27T04:12:14.126Z,13.50
2019-04-27T04:14:43.078Z,14.07
2019-04-27T04:17:13.666Z,14.95
2019-04-27T04:19:54.521Z,14.83
2019-04-27T04:22:12.889Z,14.20
2019-04-27T04:24:41.722Z,16.15
2019-04-27T04:27:10.510Z,15.08
2019-04-27T04:29:39.616Z,15.65
2019-04-27T04:32:10.627Z,14.73
2019-04-27T04:34:39.889Z,14.65
2019-04-27T04:37:09.332Z,15.40
2019-04-27T04:39:40.237Z,14.70
2019-04-27T04:42:10.518Z,13.35
2019-04-27T04:44:50.299Z,14.03
2019-04-27T04:47:37.383Z,12.98
2019-04-27T04:50:14.436Z,13.58
2019-04-27T04:52:39.603Z,14.13
2019-04-27T04:55:10.202Z,14.18
2019-04-27T04:57:40.086Z,13.03
2019-04-27T05:00:09.951Z,12.90
2019-04-27T05:02:39.684Z,13.98
2019-04-27T05:05:09.419Z,13.93
2019-04-27T05:07:38.824Z,12.80
2019-04-27T05:10:09.022Z,13.15
2019-04-27T05:12:38.698Z,13.58
2019-04-27T05:15:09.103Z,12.58
2019-04-27T05:17:39.765Z,13.10
2019-04-27T05:20:24.379Z,13.80
2019-04-27T05:22:50.087Z,13.32
2019-04-27T05:25:18.839Z,13.60
2019-04-27T05:27:49.270Z,13.13
2019-04-27T05:30:19.652Z,13.03
2019-04-27T05:32:49.533Z,12.80
2019-04-27T05:35:19.402Z,12.80
2019-04-27T05:37:49.214Z,12.95
2019-04-27T05:40:18.964Z,12.78
2019-04-27T05:42:48.802Z,13.28
2019-04-27T05:45:29.150Z,13.05
2019-04-27T05:48:03.090Z,13.25
2019-04-27T05:50:38.715Z,13.35
2019-04-27T05:53:02.527Z,12.85
2019-04-27T05:55:31.330Z,12.20
2019-04-27T05:58:00.121Z,12.37
2019-04-27T06:00:29.395Z,13.28
2019-04-27T06:02:59.074Z,12.53
2019-04-27T06:05:29.274Z,13.43
2019-04-27T06:07:58.882Z,12.60
2019-04-27T06:10:29.549Z,12.65
2019-04-27T06:12:59.850Z,12.30
2019-04-27T06:15:30.195Z,12.07
2019-04-27T06:17:59.645Z,12.45
2019-04-27T06:20:28.721Z,13.30
2019-04-27T06:22:58.824Z,12.15
2019-04-27T06:25:30.438Z,12.55
2019-04-27T06:27:59.246Z,12.78
2019-04-27T06:30:29.189Z,13.18
2019-04-27T06:32:59.449Z,12.13
2019-04-27T06:35:28.788Z,12.23
2019-04-27T06:37:58.579Z,13.13
2019-04-27T06:40:29.053Z,12.47
2019-04-27T06:42:59.541Z,13.93
2019-04-27T06:45:29.189Z,13.20
2019-04-27T06:47:59.525Z,12.47
2019-04-27T06:50:29.567Z,13.22
2019-04-27T06:52:59.019Z,12.93
2019-04-27T06:55:29.142Z,13.45
2019-04-27T06:58:01.048Z,10.88
2019-04-27T07:00:29.831Z,10.38
2019-04-27T07:02:59.679Z,11.03
2019-04-27T07:05:29.009Z,11.00
2019-04-27T07:07:59.077Z,10.23
2019-04-27T07:10:28.605Z,10.80
2019-04-27T07:12:59.492Z,9.93
2019-04-27T07:15:28.698Z,9.18
2019-04-27T07:17:58.620Z,9.25
2019-04-27T07:20:28.670Z,10.58
2019-04-27T07:22:59.477Z,9.78
2019-04-27T07:25:28.932Z,10.15
2019-04-27T07:27:59.210Z,10.78
2019-04-27T07:30:28.859Z,10.95
2019-04-27T07:32:58.840Z,9.65
2019-04-27T07:35:29.574Z,9.98
2019-04-27T07:37:58.889Z,10.88
2019-04-27T07:40:30.126Z,10.25
2019-04-27T07:43:02.576Z,9.10
2019-04-27T07:45:33.016Z,10.30
2019-04-27T07:48:01.830Z,10.48
2019-04-27T07:50:30.712Z,10.32
2019-04-27T07:52:59.494Z,8.70
2019-04-27T07:55:28.788Z,9.95
2019-04-27T07:57:59.395Z,9.03
2019-04-27T08:00:28.922Z,9.10
2019-04-27T08:02:58.580Z,8.90
2019-04-27T08:05:29.097Z,8.33
2019-04-27T08:07:57.975Z,9.48
2019-04-27T08:10:26.829Z,9.20
2019-04-27T08:12:55.686Z,9.18
2019-04-27T08:15:24.465Z,10.05
2019-04-27T08:17:53.341Z,8.85
2019-04-27T08:20:22.173Z,9.65
2019-04-27T08:22:50.974Z,9.88
2019-04-27T08:25:19.753Z,9.10
2019-04-27T08:28:00.290Z,9.40
2019-04-27T08:30:33.790Z,8.53
2019-04-27T08:33:04.296Z,9.23
2019-04-27T08:35:33.095Z,9.00
2019-04-27T08:38:01.867Z,9.25
2019-04-27T08:40:30.678Z,9.30
2019-04-27T08:42:59.468Z,8.43
2019-04-27T08:45:29.248Z,8.90
2019-04-27T08:47:59.479Z,9.68
2019-04-27T08:50:28.701Z,9.60
2019-04-27T08:52:57.614Z,10.53
2019-04-27T08:55:26.539Z,10.23
2019-04-27T08:57:55.379Z,10.55
2019-04-27T09:00:24.151Z,11.05
2019-04-27T09:02:52.921Z,10.75
2019-04-27T09:05:28.946Z,11.63
2019-04-27T09:08:18.930Z,10.95
2019-04-27T09:10:52.410Z,11.33
2019-04-27T09:13:22.874Z,11.48
2019-04-27T09:16:05.525Z,10.85
2019-04-27T09:18:35.027Z,10.43
2019-04-27T09:21:06.623Z,10.45
2019-04-27T09:23:35.433Z,10.70
2019-04-27T09:26:04.254Z,9.63
2019-04-27T09:28:33.002Z,10.60
2019-04-27T09:31:01.901Z,10.68
2019-04-27T09:33:30.687Z,10.00
2019-04-27T09:35:59.614Z,10.00
2019-04-27T09:38:29.757Z,10.00
2019-04-27T09:40:58.683Z,8.30
2019-04-27T09:43:27.563Z,9.50
2019-04-27T09:45:56.431Z,9.50
2019-04-27T09:48:26.007Z,9.70
2019-04-27T09:50:56.128Z,10.48
2019-04-27T09:53:26.923Z,10.72
2019-04-27T09:55:55.791Z,10.30
2019-04-27T09:58:25.711Z,8.65
2019-04-27T10:00:54.651Z,9.55
2019-04-27T10:03:23.450Z,9.60
2019-04-27T10:05:52.259Z,8.88
2019-04-27T10:08:21.138Z,8.83
2019-04-27T10:10:49.885Z,9.43
2019-04-27T10:13:18.721Z,8.90
2019-04-27T10:15:47.479Z,8.98
2019-04-27T10:18:16.411Z,9.48
2019-04-27T10:20:56.927Z,9.63
2019-04-27T10:23:15.716Z,8.95
2019-04-27T10:25:45.764Z,12.10
2019-04-27T10:28:14.707Z,13.45
2019-04-27T10:30:43.617Z,13.38
2019-04-27T10:33:12.451Z,13.50
2019-04-27T10:35:41.349Z,13.48
2019-04-27T10:38:10.139Z,12.33
2019-04-27T10:40:38.984Z,12.00
2019-04-27T10:43:07.971Z,12.50
2019-04-27T10:45:37.906Z,12.73
2019-04-27T10:48:09.242Z,11.65
2019-04-27T10:50:38.116Z,11.70
2019-04-27T10:53:07.102Z,12.10
2019-04-27T10:55:36.367Z,11.68
2019-04-27T10:58:05.648Z,11.43
2019-04-27T11:00:39.057Z,10.88
2019-04-27T11:03:07.890Z,10.50
2019-04-27T11:05:47.165Z,11.85
2019-04-27T11:08:16.735Z,11.35
2019-04-27T11:10:46.183Z,12.95
2019-04-27T11:13:16.478Z,12.55
2019-04-27T11:15:46.102Z,12.28
2019-04-27T11:18:16.660Z,11.70
2019-04-27T11:20:47.485Z,11.25
2019-04-27T11:23:16.534Z,10.53
2019-04-27T11:25:46.790Z,10.80
2019-04-27T11:28:15.900Z,10.85
2019-04-27T11:30:44.838Z,12.18
2019-04-27T11:33:13.696Z,11.38
2019-04-27T11:35:44.124Z,11.90
2019-04-27T11:38:13.039Z,12.47
2019-04-27T11:40:41.823Z,11.95
2019-04-27T11:43:10.678Z,10.65
2019-04-27T11:45:39.513Z,10.65
2019-04-27T11:48:08.305Z,10.58
2019-04-27T11:50:37.184Z,11.55
2019-04-27T11:53:06.320Z,11.25
2019-04-27T11:55:35.312Z,11.35
2019-04-27T11:58:04.257Z,11.63
2019-04-27T12:00:33.443Z,11.30
2019-04-27T12:03:02.180Z,11.60
2019-04-27T12:05:30.989Z,10.32
2019-04-27T12:07:59.886Z,11.10
2019-04-27T12:10:28.780Z,10.95
2019-04-27T12:12:57.632Z,9.70
2019-04-27T12:15:26.482Z,10.28
2019-04-27T12:17:56.096Z,9.65
2019-04-27T12:20:25.796Z,9.75
2019-04-27T12:22:54.894Z,9.78
2019-04-27T12:25:23.666Z,9.73
2019-04-27T12:27:54.138Z,10.53
2019-04-27T12:30:33.763Z,10.60
2019-04-27T12:33:02.703Z,9.10
2019-04-27T12:35:31.529Z,10.35
2019-04-27T12:38:00.331Z,10.38
2019-04-27T12:40:29.160Z,9.35
2019-04-27T12:42:57.899Z,9.85
2019-04-27T12:45:26.824Z,10.45
2019-04-27T12:47:56.589Z,9.13
2019-04-27T12:50:26.132Z,9.55
2019-04-27T12:52:56.693Z,10.20
2019-04-27T12:55:33.190Z,9.88
2019-04-27T12:58:06.427Z,9.60
2019-04-27T13:00:36.929Z,10.00
2019-04-27T13:03:06.179Z,10.38
2019-04-27T13:05:35.905Z,10.88
2019-04-27T13:08:04.875Z,9.40
2019-04-27T13:10:33.664Z,9.43
2019-04-27T13:13:02.525Z,9.43
2019-04-27T13:15:31.383Z,10.18
2019-04-27T13:18:00.175Z,9.70
2019-04-27T13:20:29.004Z,9.55
2019-04-27T13:22:57.780Z,9.85
2019-04-27T13:25:26.569Z,10.50
2019-04-27T13:27:56.690Z,10.32
2019-04-27T13:30:25.797Z,9.53
2019-04-27T13:32:56.231Z,9.18
2019-04-27T13:35:25.857Z,9.53
2019-04-27T13:37:55.948Z,9.00
2019-04-27T13:40:25.903Z,9.25
2019-04-27T13:42:57.536Z,9.40
2019-04-27T13:45:46.580Z,8.80
2019-04-27T13:48:33.832Z,8.85
2019-04-27T13:51:07.091Z,8.83
2019-04-27T13:53:36.801Z,8.85
2019-04-27T13:56:14.949Z,9.63
2019-04-27T13:58:44.744Z,8.95
2019-04-27T14:01:13.604Z,10.18
2019-04-27T14:03:42.403Z,9.30
2019-04-27T14:06:11.219Z,8.15
2019-04-27T14:08:40.044Z,8.88
2019-04-27T14:11:09.546Z,8.88
2019-04-27T14:13:39.105Z,8.80
2019-04-27T14:16:08.735Z,9.15
2019-04-27T14:18:38.455Z,8.90
2019-04-27T14:21:09.259Z,8.95
2019-04-27T14:23:38.626Z,9.83
2019-04-27T14:26:08.826Z,8.95
2019-04-27T14:28:37.896Z,9.23
2019-04-27T14:31:06.758Z,9.08
2019-04-27T14:33:35.738Z,9.25
2019-04-27T14:36:04.701Z,9.40
2019-04-27T14:38:33.574Z,9.68
2019-04-27T14:41:02.352Z,9.95
2019-04-27T14:43:31.215Z,10.23
2019-04-27T14:46:00.034Z,10.32
2019-04-27T14:48:29.484Z,10.00
2019-04-27T14:50:59.044Z,9.45
2019-04-27T14:53:28.285Z,10.05
2019-04-27T14:55:58.435Z,10.48
2019-04-27T14:58:28.337Z,11.10
2019-04-27T15:00:58.503Z,9.53
2019-04-27T15:03:27.598Z,10.70
2019-04-27T15:05:56.522Z,11.53
2019-04-27T15:08:25.695Z,10.95
2019-04-27T15:10:54.706Z,11.35
2019-04-27T15:13:23.508Z,11.38
2019-04-27T15:15:52.341Z,10.72
2019-04-27T15:18:22.761Z,10.40
2019-04-27T15:20:51.782Z,9.48
2019-04-27T15:23:20.813Z,10.18
2019-04-27T15:26:10.400Z,9.55
2019-04-27T15:28:44.839Z,9.50
2019-04-27T15:31:23.535Z,9.60
2019-04-27T15:33:51.455Z,9.35
2019-04-27T15:36:38.056Z,8.33
2019-04-27T15:39:26.818Z,8.98
2019-04-27T15:42:01.946Z,8.70
2019-04-27T15:44:28.814Z,7.97
2019-04-27T15:46:58.021Z,8.40
2019-04-27T15:49:27.039Z,8.03
2019-04-27T15:51:56.267Z,7.72
2019-04-27T15:54:29.051Z,7.70
2019-04-27T15:56:55.657Z,8.23
2019-04-27T15:59:26.060Z,8.48
2019-04-27T16:01:54.944Z,7.97
2019-04-27T16:04:23.748Z,8.05
2019-04-27T16:06:52.594Z,7.60
2019-04-27T16:09:25.497Z,7.33
2019-04-27T16:11:57.870Z,8.18
2019-04-27T16:14:22.820Z,7.87
2019-04-27T16:16:51.622Z,7.15
2019-04-27T16:19:20.414Z,7.58
2019-04-27T16:21:54.214Z,6.87
2019-04-27T16:24:21.140Z,6.28
2019-04-27T16:26:54.612Z,7.08
2019-04-27T16:29:23.195Z,7.20
2019-04-27T16:31:51.318Z,7.97
2019-04-27T16:34:20.157Z,7.62
2019-04-27T16:36:49.063Z,7.35
2019-04-27T16:39:18.068Z,7.55
2019-04-27T16:41:50.235Z,7.30
2019-04-27T16:44:18.837Z,8.15
2019-04-27T16:46:48.859Z,7.60
2019-04-27T16:49:18.772Z,8.30
2019-04-27T16:51:49.254Z,6.97
2019-04-27T16:54:21.189Z,7.55
2019-04-27T16:56:53.081Z,7.20
2019-04-27T16:59:39.777Z,7.58
2019-04-27T17:01:50.268Z,7.92
2019-04-27T17:04:19.300Z,7.10
2019-04-27T17:06:49.480Z,7.05
2019-04-27T17:09:19.066Z,7.80
2019-04-27T17:11:50.437Z,8.03
2019-04-27T17:14:32.820Z,8.35
2019-04-27T17:17:03.596Z,6.92
2019-04-27T17:19:43.898Z,7.90
2019-04-27T17:22:14.741Z,7.90
2019-04-27T17:24:46.711Z,7.78
2019-04-27T17:27:16.393Z,7.53
2019-04-27T17:29:50.131Z,8.63
2019-04-27T17:32:25.542Z,8.05
2019-04-27T17:35:02.497Z,8.90
2019-04-27T17:37:29.940Z,8.08
2019-04-27T17:40:00.860Z,8.30
2019-04-27T17:42:30.608Z,8.55
2019-04-27T17:45:00.527Z,9.58
2019-04-27T17:47:29.903Z,8.48
2019-04-27T17:49:58.912Z,8.93
2019-04-27T17:52:27.685Z,9.58
2019-04-27T17:54:56.528Z,8.75
2019-04-27T17:57:26.551Z,9.03
2019-04-27T18:00:01.550Z,8.68
2019-04-27T18:02:29.214Z,9.50
2019-04-27T18:04:58.851Z,9.65
2019-04-27T18:07:29.988Z,9.30
2019-04-27T18:09:58.549Z,9.75
2019-04-27T18:12:28.541Z,9.78
2019-04-27T18:14:58.172Z,10.45
2019-04-27T18:17:28.727Z,9.75
2019-04-27T18:20:05.427Z,10.13
2019-04-27T18:22:36.538Z,9.75
2019-04-27T18:25:15.246Z,10.38
2019-04-27T18:27:49.794Z,9.85
2019-04-27T18:30:23.224Z,9.90
2019-04-27T18:32:52.024Z,10.55
2019-04-27T18:35:26.264Z,10.18
2019-04-27T18:37:53.695Z,10.50
2019-04-27T18:40:24.249Z,10.58
2019-04-27T18:42:52.321Z,9.98
2019-04-27T18:45:21.163Z,11.03
2019-04-27T18:47:51.562Z,10.10
2019-04-27T18:50:28.231Z,10.43
2019-04-27T18:52:58.709Z,10.25
2019-04-27T18:55:28.973Z,10.25
2019-04-27T18:57:59.634Z,11.73
2019-04-27T19:00:29.468Z,11.68
2019-04-27T19:02:58.529Z,10.85
2019-04-27T19:05:39.271Z,11.93
2019-04-27T19:07:58.052Z,12.37
2019-04-27T19:10:28.161Z,12.03
2019-04-27T19:12:58.518Z,11.22
2019-04-27T19:15:28.565Z,12.18
2019-04-27T19:17:58.198Z,12.07
2019-04-27T19:20:28.768Z,13.10
2019-04-27T19:22:59.741Z,13.38
2019-04-27T19:25:48.117Z,12.20
2019-04-27T19:28:34.806Z,12.45
2019-04-27T19:31:05.281Z,14.60
2019-04-27T19:33:34.072Z,13.48
2019-04-27T19:36:02.835Z,13.22
2019-04-27T19:38:31.720Z,14.03
2019-04-27T19:41:03.263Z,13.48
2019-04-27T19:43:32.141Z,14.35
2019-04-27T19:46:01.034Z,14.15
2019-04-27T19:48:29.879Z,12.78
2019-04-27T19:51:00.161Z,13.18
2019-04-27T19:53:29.302Z,12.85
2019-04-27T19:56:04.091Z,14.30
2019-04-27T19:58:34.560Z,13.18
2019-04-27T20:01:12.019Z,13.93
2019-04-27T20:03:38.659Z,13.45
2019-04-27T20:06:07.723Z,13.03
2019-04-27T20:08:38.706Z,13.50
2019-04-27T20:11:07.601Z,13.28
2019-04-27T20:13:36.500Z,12.05
2019-04-27T20:16:05.309Z,12.45
2019-04-27T20:18:34.060Z,12.85
2019-04-27T20:21:02.897Z,12.00
2019-04-27T20:23:31.792Z,11.55
2019-04-27T20:26:00.609Z,11.93
2019-04-27T20:28:31.284Z,11.85
2019-04-27T20:31:00.049Z,11.48
2019-04-27T20:33:28.865Z,12.00
2019-04-27T20:35:57.748Z,12.25
2019-04-27T20:38:26.631Z,10.68
2019-04-27T20:40:55.756Z,11.03
2019-04-27T20:43:24.848Z,10.58
2019-04-27T20:45:53.756Z,10.88
2019-04-27T20:48:22.546Z,10.98
2019-04-27T20:50:51.419Z,11.45
2019-04-27T20:53:21.759Z,11.50
2019-04-27T20:55:50.640Z,10.65
2019-04-27T20:58:21.132Z,10.93
2019-04-27T21:00:51.694Z,11.85
2019-04-27T21:03:22.077Z,11.18
2019-04-27T21:05:55.472Z,11.08
2019-04-27T21:08:25.913Z,11.30
2019-04-27T21:10:54.792Z,11.22
2019-04-27T21:13:23.571Z,10.80
2019-04-27T21:15:52.423Z,11.25
2019-04-27T21:18:21.736Z,10.80
2019-04-27T21:20:53.401Z,10.53
2019-04-27T21:23:22.293Z,9.73
2019-04-27T21:25:53.475Z,10.70
2019-04-27T21:28:21.688Z,10.78
2019-04-27T21:30:50.541Z,10.75
2019-04-27T21:33:21.407Z,11.03
2019-04-27T21:35:52.313Z,10.15
2019-04-27T21:38:21.189Z,9.90
2019-04-27T21:40:50.087Z,10.00
2019-04-27T21:43:21.940Z,10.30
2019-04-27T21:45:51.178Z,9.18
2019-04-27T21:48:21.172Z,9.30
2019-04-27T21:50:51.688Z,8.98
2019-04-27T21:53:28.617Z,8.48
2019-04-27T21:56:01.723Z,9.33
2019-04-27T21:58:31.481Z,8.73
2019-04-27T22:01:18.652Z,8.70
2019-04-27T22:03:47.471Z,8.48
2019-04-27T22:06:16.299Z,7.97
2019-04-27T22:08:45.208Z,8.55
2019-04-27T22:11:14.089Z,8.98
2019-04-27T22:13:42.923Z,8.53
2019-04-27T22:16:13.065Z,8.08
2019-04-27T22:18:42.060Z,8.28
2019-04-27T22:21:11.560Z,8.53
2019-04-27T22:23:45.264Z,7.92
2019-04-27T22:26:14.082Z,8.43
2019-04-27T22:28:47.013Z,8.48
2019-04-27T22:31:13.492Z,8.23
2019-04-27T22:33:42.938Z,8.73
2019-04-27T22:36:11.982Z,8.48
2019-04-27T22:38:41.354Z,8.28
2019-04-27T22:41:14.423Z,8.40
2019-04-27T22:43:53.924Z,8.38
2019-04-27T22:46:33.230Z,8.10
2019-04-27T22:49:02.090Z,8.83
2019-04-27T22:51:30.868Z,8.90
2019-04-27T22:54:01.246Z,8.98
2019-04-27T22:56:32.046Z,8.83
2019-04-27T22:59:05.603Z,8.83
2019-04-27T23:01:36.096Z,9.35
2019-04-27T23:04:06.547Z,8.20
2019-04-27T23:06:35.427Z,8.50
2019-04-27T23:09:05.609Z,8.93
2019-04-27T23:11:34.486Z,8.75
2019-04-27T23:14:03.231Z,8.43
2019-04-27T23:16:33.708Z,9.08
2019-04-27T23:19:02.528Z,8.73
2019-04-27T23:21:31.366Z,8.95
2019-04-27T23:24:01.884Z,8.25
2019-04-27T23:26:31.242Z,8.50
2019-04-27T23:29:12.386Z,8.13
2019-04-27T23:31:38.215Z,7.53
2019-04-27T23:34:07.062Z,9.03
2019-04-27T23:36:35.842Z,8.35
2019-04-27T23:39:06.741Z,8.03
2019-04-27T23:41:35.553Z,8.60
2019-04-27T23:44:04.328Z,8.40
2019-04-27T23:46:33.137Z,8.18
2019-04-27T23:49:02.011Z,8.80
2019-04-27T23:51:32.436Z,7.90
2019-04-27T23:54:01.701Z,8.58
2019-04-27T23:56:31.837Z,8.60
2019-04-27T23:59:00.748Z,8.95
